This is the latest recevied weather packets stored in our database for station/object F5MAP-5. If no packets are shown the sender has not sent any weather packets the latest 10 day(s).
| Time | Temp. | Humidity | Pressure | Rain* | Wind** | Luminosity | Snow |
|---|---|---|---|---|---|---|---|
| 1787682130 | 21.11° C | 78% | 1013.7 hPa | 0 mm | - | 0 W/m² | - |
| 1787681530 | 21.67° C | 77% | 1013.6 hPa | 0 mm | - | 0 W/m² | - |
| 1787680930 | 22.22° C | 76% | 1013.3 hPa | 0 mm | - | 7 W/m² | - |
| 1787680330 | 22.22° C | 75% | 1013.2 hPa | 0 mm | - | 25 W/m² | - |
| 1787679731 | 22.78° C | 74% | 1013.2 hPa | 0 mm | - | 11 W/m² | - |
| 1787679130 | 23.33° C | 72% | 1012.9 hPa | 0 mm | - | 12 W/m² | - |
| 1787678530 | 23.89° C | 72% | 1012.8 hPa | 0 mm | - | 14 W/m² | - |
| 1787677930 | 23.89° C | 71% | 1012.7 hPa | 0 mm | - | 18 W/m² | - |
| 1787677330 | 24.44° C | 70% | 1012.7 hPa | 0 mm | - | 18 W/m² | - |
| 1787676730 | 24.44° C | 69% | 1012.6 hPa | 0 mm | - | 56 W/m² | - |
| 1787676130 | 25° C | 68% | 1012.5 hPa | 0 mm | - | 62 W/m² | - |
| 1787675530 | 25° C | 67% | 1012.4 hPa | 0 mm | - | 47 W/m² | - |
| 1787674930 | 25° C | 67% | 1012.3 hPa | 0 mm | - | 49 W/m² | - |
| 1787674330 | 25° C | 66% | 1012.2 hPa | 0 mm | - | 72 W/m² | - |
| 1787673730 | 25° C | 66% | 1012.2 hPa | 0 mm | - | 97 W/m² | - |
| 1787673130 | 25° C | 66% | 1012.1 hPa | 0 mm | - | 139 W/m² | - |
| 1787672530 | 25° C | 66% | 1012.1 hPa | 0 mm | - | 132 W/m² | - |
| 1787671930 | 25° C | 66% | 1012.2 hPa | 0 mm | - | 130 W/m² | - |
| 1787671331 | 25° C | 66% | 1012.3 hPa | 0 mm | - | 174 W/m² | - |
| 1787670729 | 25° C | 66% | 1012.2 hPa | 0 mm | - | 160 W/m² | - |
| 1787670129 | 25° C | 66% | 1012.3 hPa | 0 mm | - | 105 W/m² | - |
| 1787669530 | 25° C | 66% | 1012.2 hPa | 0 mm | - | 113 W/m² | - |
| 1787668930 | 25° C | 67% | 1012.3 hPa | 0 mm | - | 53 W/m² | - |
| 1787668329 | 25° C | 67% | 1012.3 hPa | 0 mm | - | 72 W/m² | - |
| 1787667729 | 24.44° C | 68% | 1012.4 hPa | 0 mm | - | 114 W/m² | - |
* Rain latest hour (hover to see other rain measurements)
** Current wind speed in m/s (hover to see current wind gust speed)